Latest Weather Observations for Badgerys Creek

IDN60801

Issued at 7:12 pm EST Sunday 19 April 2015 (issued every 30 minutes, with the page automatically refreshed every 10 minutes)

About weather observations | Map of weather stations | Latest weather observations for NSW | Other Formats
Station Details ID: 067108 Name: BADGERYS CREEK AWS Lat: -33.90 Lon: 150.73 Height: 81.2 m
Data from the previous 72 hours. | See also: Recent months at Badgerys Creek
Date/Time
EST
Temp
°C
App
Temp
°C
Dew
Point
Rel
Hum
%
Delta-T
°C
Wind Press
QNH
hPa
Press
MSL
hPa
Rain
since 9 am
mm
Dir
 
Spd
km/h
Gust
km/h
Spd
kts
Gust
kts
19/07:00pm 13.6 9.8 9.8 78 2.0 SSW 20 32 11 17 1023.9 1023.7 0.0
19/06:30pm 14.3 10.6 10.1 76 2.2 SSW 20 30 11 16 1023.3 1023.1 0.0
19/06:00pm 15.2 11.0 9.6 69 2.9 SSE 22 35 12 19 1022.7 1022.5 0.0
19/05:30pm 15.8 12.6 10.1 69 3.0 SSE 17 30 9 16 1022.1 1021.9 0.0
19/05:00pm 16.5 13.1 10.6 68 3.1 SSE 19 26 10 14 1021.6 1021.4 0.0
19/04:30pm 17.1 13.7 11.2 68 3.2 S 20 30 11 16 1020.9 1020.7 0.0
19/04:00pm 18.3 15.2 11.6 65 3.7 SE 19 30 10 16 1020.3 1020.1 0.0
19/03:30pm 19.4 17.1 13.1 67 3.6 ESE 17 24 9 13 1019.8 1019.6 0.0
19/03:00pm 18.9 16.4 12.4 66 3.6 SE 17 24 9 13 1019.5 1019.3 0.0
19/02:30pm 19.7 18.0 13.6 68 3.5 ESE 15 20 8 11 1019.0 1018.8 0.0
19/02:00pm 20.9 19.4 13.1 61 4.5 SE 13 22 7 12 1018.9 1018.7 0.0
19/01:30pm 23.1 22.1 10.9 46 6.8 WSW 7 13 4 7 1018.6 1018.4 0.0
19/01:00pm 22.3 20.8 10.5 47 6.5 SW 9 19 5 10 1018.8 1018.6 0.0
19/12:30pm 21.9 20.1 10.7 49 6.2 SW 11 17 6 9 1018.9 1018.7 0.0
19/12:00pm 21.6 19.1 11.0 51 5.9 SSW 15 24 8 13 1019.2 1019.0 0.0
19/11:30am 21.0 17.8 11.1 53 5.5 SW 19 26 10 14 1019.2 1019.0 0.0
19/11:00am 20.5 16.5 10.3 52 5.5 WSW 22 32 12 17 1019.4 1019.2 0.0
19/10:30am 20.5 17.3 11.4 56 5.0 SW 19 28 10 15 1019.3 1019.1 0.0
19/10:00am 19.9 17.0 11.1 57 4.8 SW 17 26 9 14 1019.4 1019.2 0.0
19/09:30am 19.1 14.8 10.6 58 4.6 SW 24 33 13 18 1019.1 1018.9 0.0
19/09:00am 18.4 14.9 10.8 61 4.1 SW 20 30 11 16 1019.0 1018.8 6.8
19/08:30am 17.7 14.2 10.3 62 3.9 SW 19 28 10 15 1018.6 1018.4 6.8
19/08:00am 17.1 14.7 10.2 64 3.7 SW 13 20 7 11 1018.2 1018.0 6.8
19/07:30am 16.1 14.5 11.7 75 2.4 WSW 11 17 6 9 1017.8 1017.6 6.8
19/07:00am 16.1 14.6 13.0 82 1.7 W 13 19 7 10 1016.6 1016.5 6.8
19/06:30am 15.6 16.7 15.6 100 0.0 SW 4 7 2 4 1016.3 1016.2 6.8
19/06:00am 15.7 16.3 15.7 100 0.0 NW 7 9 4 5 1015.5 1015.4 6.8
19/05:30am 15.9 16.7 15.9 100 0.0 NW 6 6 3 3 1015.1 1015.0 6.8
19/05:00am 16.6 18.1 16.6 100 0.0 NNE 4 6 2 3 1014.9 1014.8 6.8
19/04:30am 16.4 18.5 16.2 99 0.1 CALM 0 0 0 0 1014.6 1014.5 6.8
19/04:00am 16.6 18.4 16.4 99 0.1 N 2 4 1 2 1014.2 1014.1 6.8
19/03:30am 17.3 19.4 17.1 99 0.1 NNE 2 4 1 2 1014.0 1013.9 6.8
19/03:00am 17.4 18.8 17.4 100 0.0 NNW 6 9 3 5 1013.7 1013.6 6.8
19/02:30am 17.5 18.7 17.3 99 0.1 NNW 7 9 4 5 1013.9 1013.8 6.8
19/02:00am 17.5 19.2 17.2 98 0.2 N 4 7 2 4 1014.0 1013.9 6.8
19/01:30am 17.7 19.8 17.2 97 0.3 NNW 2 6 1 3 1013.9 1013.8 6.6
19/01:00am 17.9 18.1 17.6 98 0.2 N 13 17 7 9 1014.4 1014.3 6.6
19/12:30am 18.0 17.8 17.5 97 0.3 N 15 19 8 10 1014.8 1014.7 6.4
19/12:00am 18.1 17.9 17.6 97 0.3 N 15 20 8 11 1014.7 1014.6 6.2
 
Date/Time
EST
Temp
°C
App
Temp
°C
Dew
Point
Rel
Hum
%
Delta-T
°C
Wind Press
QNH
hPa
Press
MSL
hPa
Rain
since 9 am
mm
Dir
 
Spd
km/h
Gust
km/h
Spd
kts
Gust
kts
18/11:30pm 18.1 18.6 17.5 96 0.4 N 11 13 6 7 1014.9 1014.8 6.0
18/11:00pm 18.2 18.7 17.4 95 0.5 NNE 11 17 6 9 1014.8 1014.7 4.8
18/10:30pm 18.5 18.5 17.2 92 0.8 N 13 17 7 9 1015.2 1015.1 2.8
18/10:00pm 19.2 19.2 17.2 88 1.2 N 13 15 7 8 1014.9 1014.8 1.6
18/09:30pm 19.6 19.8 16.8 84 1.7 NNW 11 17 6 9 1015.1 1015.0 0.8
18/09:00pm 19.9 19.8 16.9 83 1.8 NNW 13 15 7 8 1014.8 1014.7 0.8
18/08:30pm 20.5 19.4 17.3 82 2.0 NW 19 32 10 17 1014.5 1014.4 0.2
18/08:00pm 20.9 21.5 16.9 78 2.4 N 9 11 5 6 1013.6 1013.5 0.0
18/07:30pm 21.0 22.0 16.8 77 2.6 NNE 7 7 4 4 1013.5 1013.4 0.0
18/07:00pm 21.2 21.8 16.8 76 2.7 N 9 11 5 6 1013.2 1013.0 0.0
18/06:30pm 21.9 22.0 16.6 72 3.2 N 11 17 6 9 1013.4 1013.2 0.0
18/06:00pm 22.1 21.9 16.8 72 3.2 NNE 13 17 7 9 1012.9 1012.7 0.0
18/05:30pm 22.4 22.2 16.7 70 3.5 NNE 13 17 7 9 1012.8 1012.6 0.0
18/05:00pm 23.1 21.7 16.6 67 4.0 NNE 19 22 10 12 1012.8 1012.6 0.0
18/04:30pm 23.4 23.4 17.2 68 3.8 NNE 13 19 7 10 1012.9 1012.7 0.0
18/04:00pm 24.2 23.4 17.0 64 4.5 NNE 17 20 9 11 1013.1 1012.9 0.0
18/03:30pm 24.4 23.5 16.9 63 4.6 N 17 20 9 11 1013.3 1013.1 0.0
18/03:00pm 24.3 23.5 17.1 64 4.5 N 17 26 9 14 1013.4 1013.2 0.0
18/02:30pm 24.6 23.5 17.3 64 4.5 N 19 24 10 13 1013.6 1013.5 0.0
18/02:00pm 25.0 24.8 17.5 63 4.7 NNE 15 20 8 11 1013.7 1013.6 0.0
18/01:30pm 25.7 26.2 18.4 64 4.6 N 13 17 7 9 1013.9 1013.8 0.0
18/01:00pm 26.0 25.9 17.9 61 5.1 N 15 20 8 11 1014.1 1014.0 0.0
18/12:30pm 26.9 27.5 17.7 57 5.8 N 11 19 6 10 1014.4 1014.3 0.0
18/12:00pm 26.4 26.2 17.7 58 5.5 N 15 20 8 11 1015.2 1015.1 0.0
18/11:30am 25.2 26.5 18.4 66 4.3 NNW 9 13 5 7 1015.9 1015.8 0.0
18/11:00am 24.4 23.9 17.9 67 4.1 N 17 24 9 13 1016.3 1016.2 0.0
18/10:30am 23.9 25.0 18.8 73 3.2 N 11 15 6 8 1016.5 1016.4 0.0
18/10:00am 23.4 24.4 19.5 79 2.5 N 13 19 7 10 1016.9 1016.8 0.0
18/09:30am 22.3 23.8 19.7 85 1.7 N 11 19 6 10 1017.2 1017.1 0.0
18/09:00am 20.2 22.9 20.2 100 0.0 N 6 9 3 5 1017.5 1017.3 3.4
18/08:30am 19.0 20.5 19.0 100 0.0 NNE 9 13 5 7 1017.8 1017.6 3.4
18/08:00am 18.5 19.8 18.5 100 0.0 N 9 13 5 7 1018.0 1017.8 3.4
18/07:30am 18.4 20.2 18.4 100 0.0 NE 6 6 3 3 1017.8 1017.6 3.4
18/07:00am 18.1 20.6 18.1 100 0.0 NE 2 4 1 2 1017.6 1017.4 3.4
18/06:30am 17.7 20.4 17.7 100 0.0 CALM 0 0 0 0 1017.3 1017.2 3.2
18/06:00am 18.0 20.4 18.0 100 0.0 NE 2 2 1 1 1017.1 1017.0 3.2
18/05:30am 18.4 21.0 18.4 100 0.0 NE 2 2 1 1 1017.2 1017.1 3.2
18/05:00am 18.3 20.9 18.3 100 0.0 NE 2 4 1 2 1017.2 1017.1 3.2
18/04:30am 17.9 19.9 17.9 100 0.0 NE 4 4 2 2 1017.1 1017.0 3.2
18/04:00am 17.5 20.1 17.5 100 0.0 CALM 0 0 0 0 1017.1 1017.0 3.2
18/03:30am 17.8 20.5 17.8 100 0.0 CALM 0 0 0 0 1017.5 1017.3 3.2
18/03:00am 17.6 20.2 17.4 99 0.1 CALM 0 0 0 0 1017.7 1017.5 3.2
18/02:30am 18.0 20.7 17.8 99 0.1 CALM 0 0 0 0 1018.1 1017.9 3.2
18/02:00am 18.4 20.9 18.2 99 0.1 NE 2 4 1 2 1018.6 1018.4 3.2
18/01:30am 18.5 20.9 18.0 97 0.3 NE 2 4 1 2 1019.2 1019.0 3.2
18/01:00am 19.1 21.4 18.6 97 0.3 NE 4 6 2 3 1019.4 1019.2 3.2
18/12:30am 19.5 21.5 18.8 96 0.4 NE 6 6 3 3 1019.7 1019.5 3.2
18/12:00am 19.6 22.4 18.9 96 0.4 NNE 2 9 1 5 1019.7 1019.5 3.2
 
Date/Time
EST
Temp
°C
App
Temp
°C
Dew
Point
Rel
Hum
%
Delta-T
°C
Wind Press
QNH
hPa
Press
MSL
hPa
Rain
since 9 am
mm
Dir
 
Spd
km/h
Gust
km/h
Spd
kts
Gust
kts
17/11:30pm 19.6 22.8 18.8 95 0.5 CALM 0 0 0 0 1020.5 1020.3 3.2
17/11:00pm 19.8 22.3 19.1 96 0.4 NNE 4 6 2 3 1020.6 1020.4 3.2
17/10:30pm 19.8 21.3 19.0 95 0.5 NNE 9 11 5 6 1020.9 1020.7 3.2
17/10:00pm 19.7 21.7 19.2 97 0.3 NNE 7 9 4 5 1021.2 1021.0 3.2
17/09:30pm 19.5 21.9 18.8 96 0.4 ENE 4 6 2 3 1021.2 1021.0 3.2
17/09:00pm 19.6 22.0 18.9 96 0.4 ENE 4 4 2 2 1021.4 1021.2 3.2
17/08:30pm 19.7 22.1 18.9 95 0.5 ENE 4 6 2 3 1021.6 1021.4 3.2
17/08:00pm 19.7 21.8 18.9 95 0.5 ENE 6 6 3 3 1021.6 1021.4 3.2
17/07:30pm 19.6 21.6 18.8 95 0.5 ENE 6 7 3 4 1021.5 1021.3 3.2
17/07:00pm 19.8 21.8 18.8 94 0.6 ENE 6 7 3 4 1021.3 1021.1 3.2
17/06:30pm 20.0 22.1 19.0 94 0.6 E 6 9 3 5 1021.3 1021.1 3.2
17/06:00pm 20.1 22.7 19.3 95 0.5 NE 4 6 2 3 1021.2 1021.0 3.2
17/05:30pm 20.2 22.5 19.4 95 0.5 NE 6 9 3 5 1021.0 1020.8 3.2
17/05:00pm 20.5 22.7 19.3 93 0.8 NE 6 6 3 3 1021.0 1020.8 3.2
17/04:30pm 20.7 23.4 19.4 92 0.8 NE 4 7 2 4 1020.9 1020.7 3.2
17/04:00pm 20.8 23.4 19.3 91 0.9 NE 4 6 2 3 1021.0 1020.8 3.2
17/03:30pm 20.9 23.6 19.4 91 1.0 NE 4 6 2 3 1021.1 1020.9 3.2
17/03:00pm 20.7 23.8 19.5 93 0.8 NE 2 4 1 2 1021.3 1021.1 3.2
17/02:30pm 20.5 23.1 19.3 93 0.8 NE 4 6 2 3 1021.4 1021.2 3.2
17/02:00pm 20.3 22.9 19.3 94 0.6 NE 4 6 2 3 1021.7 1021.5 3.2
17/01:30pm 20.1 22.7 19.3 95 0.5 NE 4 6 2 3 1021.9 1021.7 3.2
17/01:00pm 19.7 22.2 19.0 96 0.4 NE 4 6 2 3 1022.5 1022.3 3.2
17/12:30pm 19.6 23.0 19.3 98 0.2 CALM 0 2 0 1 1023.2 1023.0 3.2
17/12:00pm 19.4 21.7 19.4 100 0.0 NE 6 9 3 5 1023.7 1023.5 3.2
17/11:30am 19.0 21.1 19.0 100 0.0 NNE 6 7 3 4 1024.1 1024.0 3.0
17/11:00am 18.7 19.7 18.7 100 0.0 N 11 15 6 8 1024.7 1024.6 2.0
17/10:30am 19.1 21.5 18.9 99 0.1 SSE 4 11 2 6 1024.7 1024.6 1.4
17/10:00am 18.9 22.0 18.6 98 0.2 CALM 0 0 0 0 1024.8 1024.7 0.4
17/09:30am 18.9 21.9 18.4 97 0.3 CALM 0 0 0 0 1024.9 1024.8 0.0
17/09:00am 18.9 21.9 18.4 97 0.3 CALM 0 0 0 0 1024.9 1024.8 2.6
17/08:30am 18.9 21.9 18.4 97 0.3 CALM 0 0 0 0 1024.9 1024.8 2.6
17/08:00am 18.7 21.7 18.4 98 0.2 CALM 0 0 0 0 1024.8 1024.7 2.6
17/07:30am 18.6 20.8 18.3 98 0.2 S 4 6 2 3 1024.6 1024.5 2.4
17/07:00am 18.7 20.8 18.2 97 0.3 S 4 6 2 3 1024.2 1024.1 1.8
17/06:30am 18.8 21.7 18.3 97 0.3 CALM 0 0 0 0 1023.9 1023.7 1.8
17/06:00am 18.8 21.7 18.3 97 0.3 CALM 0 0 0 0 1023.8 1023.6 1.8
17/05:30am 18.8 21.4 18.3 97 0.3 S 2 4 1 2 1023.6 1023.4 1.8
17/05:00am 18.8 20.9 18.0 95 0.5 S 4 6 2 3 1023.2 1023.0 0.8
17/04:30am 19.1 21.5 17.9 93 0.7 S 2 4 1 2 1023.4 1023.2 0.4
17/04:00am 19.1 21.6 18.1 94 0.6 S 2 2 1 1 1023.2 1023.0 0.2
17/03:30am 19.1 21.1 17.9 93 0.7 S 4 6 2 3 1023.2 1023.0 0.0
17/03:00am 19.3 21.3 17.8 91 0.9 SSE 4 6 2 3 1023.1 1022.9 0.0
17/02:30am 19.6 21.6 17.9 90 1.0 SE 4 4 2 2 1023.7 1023.5 0.0
17/02:00am 19.6 22.0 17.9 90 1.0 SE 2 6 1 3 1024.0 1023.9 0.0
17/01:30am 19.8 22.5 17.8 88 1.2 CALM 0 0 0 0 1023.8 1023.6 0.0
17/01:00am 19.8 22.3 17.2 85 1.6 CALM 0 0 0 0 1023.9 1023.7 0.0
17/12:30am 19.8 22.4 17.6 87 1.4 CALM 0 0 0 0 1023.9 1023.7 0.0
17/12:00am 20.0 22.5 17.2 84 1.7 CALM 0 0 0 0 1024.1 1024.0 0.0
 
Date/Time
EST
Temp
°C
App
Temp
°C
Dew
Point
Rel
Hum
%
Delta-T
°C
Wind Press
QNH
hPa
Press
MSL
hPa
Rain
since 9 am
mm
Dir
 
Spd
km/h
Gust
km/h
Spd
kts
Gust
kts
16/11:30pm 20.1 22.7 17.5 85 1.6 CALM 0 0 0 0 1024.0 1023.9 0.0
16/11:00pm 20.2 22.4 17.4 84 1.7 SE 2 2 1 1 1024.1 1024.0 0.0
16/10:30pm 20.3 22.5 17.5 84 1.7 SSE 2 4 1 2 1024.1 1024.0 0.0
16/10:00pm 20.5 22.3 17.5 83 1.8 SSE 4 6 2 3 1024.3 1024.2 0.0
16/09:30pm 20.5 22.3 17.5 83 1.8 SSE 4 6 2 3 1024.0 1023.9 0.0
16/09:00pm 20.6 22.1 17.6 83 1.8 SSW 6 9 3 5 1023.9 1023.7 0.0
16/08:30pm 20.7 22.1 17.7 83 1.9 S 7 9 4 5 1023.7 1023.5 0.0
16/08:00pm 20.7 21.3 17.7 83 1.8 S 11 17 6 9 1023.3 1023.1 0.0
16/07:30pm 20.6 21.6 17.8 84 1.7 S 9 15 5 8 1022.8 1022.6 0.0

Other Formats:

Comma delimited format used in spreadsheet applications
http://www.bom.gov.au/fwo/IDN60801/IDN60801.94752.axf

JavaScript Object Notation format (JSON) in row-major order
http://www.bom.gov.au/fwo/IDN60801/IDN60801.94752.json